Time;durP1;ratioP1;P1;durP2;ratioP2;P2;SDS_P1;SDS_P2;PMS_P1;PMS_P2;Temp;Humidity;BMP_temperature;BMP_pressure;BME280_temperature;BME280_humidity;BME280_pressure;Samples;Min_cycle;Max_cycle;Signal;HPM_P1;HPM_P2
2021/08/18 00:04:24;;;;;;;5.03;2.93;;;;;;;13.41;65.84;99487.63;257363;1104;115591;-69
2021/08/18 00:09:27;;;;;;;7.27;3.53;;;;;;;13.44;65.30;99487.11;257281;1104;115771;-69
2021/08/18 00:14:31;;;;;;;6.55;3.90;;;;;;;13.47;65.39;99481.21;257243;1104;115599;-68
2021/08/18 00:19:34;;;;;;;6.83;4.30;;;;;;;13.52;65.63;99475.89;257058;1104;116217;-69
2021/08/18 00:24:37;;;;;;;7.28;4.45;;;;;;;13.55;65.68;99478.05;257053;1104;116821;-69
2021/08/18 00:29:41;;;;;;;5.20;3.50;;;;;;;13.60;65.43;99469.23;257059;1104;116214;-69
2021/08/18 00:34:44;;;;;;;3.43;2.80;;;;;;;13.68;65.54;99480.27;257124;1104;116490;-68
2021/08/18 00:39:48;;;;;;;5.77;3.53;;;;;;;13.73;65.41;99479.48;256207;1104;115750;-68
2021/08/18 00:44:56;;;;;;;9.15;4.73;;;;;;;13.72;65.25;99481.36;257312;1104;116075;-68
2021/08/18 00:49:59;;;;;;;7.60;4.10;;;;;;;13.79;65.34;99487.27;254319;1104;202959;-68
2021/08/18 00:55:03;;;;;;;7.78;4.75;;;;;;;13.81;65.28;99487.80;255375;1104;115802;-68
2021/08/18 01:00:09;;;;;;;8.50;4.93;;;;;;;13.81;65.22;99487.80;254220;1104;115251;-67
2021/08/18 01:05:18;;;;;;;10.08;5.00;;;;;;;13.83;65.18;99488.36;256080;1104;114161;-67
2021/08/18 01:10:24;;;;;;;7.05;4.08;;;;;;;13.85;65.42;99481.92;254789;1104;115150;-67
2021/08/18 01:15:30;;;;;;;6.25;4.38;;;;;;;13.90;65.68;99479.27;253921;1104;115449;-67
2021/08/18 01:20:37;;;;;;;9.28;4.13;;;;;;;13.90;65.02;99479.27;253743;1104;115509;-68
2021/08/18 01:25:43;;;;;;;8.28;4.08;;;;;;;13.87;65.38;99482.47;254516;1104;115058;-68
2021/08/18 01:30:47;;;;;;;7.17;4.97;;;;;;;13.81;65.72;99474.41;256214;1104;115088;-66
2021/08/18 01:35:51;;;;;;;7.25;5.45;;;;;;;13.81;65.78;99477.09;254565;1104;115189;-67
2021/08/18 01:40:56;;;;;;;7.80;4.98;;;;;;;13.81;65.13;99479.77;254772;1104;114984;-66
2021/08/18 01:45:59;;;;;;;9.18;5.20;;;;;;;13.78;65.72;99472.25;257311;1104;115740;-66
2021/08/18 01:51:06;;;;;;;5.65;4.45;;;;;;;13.79;65.54;99475.73;256196;1104;115307;-66
2021/08/18 01:56:12;;;;;;;8.55;4.90;;;;;;;13.79;65.70;99473.86;255422;1104;115148;-67
2021/08/18 02:01:16;;;;;;;8.33;4.53;;;;;;;13.81;65.88;99471.73;257253;1104;115427;-67
2021/08/18 02:06:20;;;;;;;6.83;4.35;;;;;;;13.82;66.14;99476.02;256906;1104;114966;-67
2021/08/18 02:11:23;;;;;;;5.37;4.27;;;;;;;13.83;66.31;99472.28;257146;1104;114708;-67
2021/08/18 02:16:25;;;;;;;6.75;4.50;;;;;;;13.81;66.02;99474.41;257257;1104;114956;-67
2021/08/18 02:21:29;;;;;;;7.18;4.80;;;;;;;13.80;66.13;99474.67;257079;1104;115052;-66
2021/08/18 02:26:32;;;;;;;6.00;4.13;;;;;;;13.78;66.41;99474.13;257108;1104;115492;-67
2021/08/18 02:31:35;;;;;;;8.80;5.93;;;;;;;13.75;66.00;99482.72;257057;1104;116066;-66
2021/08/18 02:36:39;;;;;;;8.68;5.70;;;;;;;13.69;66.60;99473.84;254525;1104;115786;-67
2021/08/18 02:41:43;;;;;;;15.13;5.50;;;;;;;13.68;66.33;99464.20;256082;1104;114739;-68
2021/08/18 02:46:46;;;;;;;12.77;5.70;;;;;;;13.66;66.78;99469.01;255314;1104;115117;-68
2021/08/18 02:51:49;;;;;;;8.00;5.23;;;;;;;13.57;66.67;99465.20;255168;1104;116285;-68
2021/08/18 02:56:53;;;;;;;6.63;4.85;;;;;;;13.51;67.40;99476.95;255782;1104;115411;-68
2021/08/18 03:01:56;;;;;;;11.23;6.07;;;;;;;13.49;67.09;99463.02;255742;1104;115437;-68
2021/08/18 03:07:00;;;;;;;10.33;6.38;;;;;;;13.46;67.48;99463.53;255514;1104;115522;-67
2021/08/18 03:12:05;;;;;;;7.90;5.70;;;;;;;13.43;67.42;99461.41;254981;1104;115471;-68
2021/08/18 03:17:07;;;;;;;6.73;4.98;;;;;;;13.36;67.57;99458.14;256152;1104;115263;-68
2021/08/18 03:22:10;;;;;;;10.15;5.33;;;;;;;13.31;67.69;99456.23;255011;1104;115140;-68
2021/08/18 03:27:15;;;;;;;11.80;5.70;;;;;;;13.27;67.93;99459.69;256851;1104;114571;-66
2021/08/18 03:32:18;;;;;;;8.28;6.48;;;;;;;13.21;67.96;99466.06;255382;1104;114958;-66
2021/08/18 03:37:21;;;;;;;14.60;6.25;;;;;;;13.10;68.03;99462.51;257077;1104;116079;-68
2021/08/18 03:42:24;;;;;;;6.80;5.83;;;;;;;13.00;68.44;99467.78;254039;1104;115465;-68
2021/08/18 03:47:27;;;;;;;10.90;5.78;;;;;;;12.95;68.37;99470.41;254730;1104;115961;-68
2021/08/18 03:52:30;;;;;;;7.88;5.08;;;;;;;12.96;68.91;99462.13;254663;1104;115760;-68
2021/08/18 03:57:33;;;;;;;11.85;4.88;;;;;;;12.94;68.83;99466.94;256144;1104;114892;-68
2021/08/18 04:02:36;;;;;;;10.15;5.65;;;;;;;13.01;69.13;99475.55;254941;1104;115324;-67
2021/08/18 04:07:41;;;;;;;7.00;5.50;;;;;;;13.07;69.56;99490.59;256231;1104;114803;-68
2021/08/18 04:12:58;;;;;;;6.63;4.70;;;;;;;13.21;69.24;99485.61;255784;1104;114418;-67
2021/08/18 04:18:01;;;;;;;9.50;5.45;;;;;;;13.30;68.94;99486.75;257225;1104;115273;-67
2021/08/18 04:23:05;;;;;;;10.20;6.18;;;;;;;13.43;68.89;99488.17;257157;1104;114887;-68
2021/08/18 04:28:08;;;;;;;9.88;6.03;;;;;;;13.56;69.07;99494.92;257198;1104;115232;-68
2021/08/18 04:33:11;;;;;;;9.67;5.57;;;;;;;13.66;69.22;99500.34;257103;1104;115103;-68
2021/08/18 04:38:15;;;;;;;10.47;5.80;;;;;;;13.80;68.65;99512.98;256998;1104;115069;-68
2021/08/18 04:43:18;;;;;;;7.03;5.00;;;;;;;13.92;68.80;99514.66;256937;1104;115386;-68
2021/08/18 04:48:21;;;;;;;5.70;4.60;;;;;;;14.03;68.38;99519.80;257051;1104;114923;-68
2021/08/18 04:53:23;;;;;;;10.93;6.28;;;;;;;14.24;68.50;99523.34;257157;1104;114859;-69
2021/08/18 04:58:27;;;;;;;7.90;6.00;;;;;;;14.50;68.55;99516.20;255500;1100;115089;-68
2021/08/18 05:03:30;;;;;;;10.75;6.98;;;;;;;14.73;67.88;99514.88;254734;1104;115407;-68
2021/08/18 05:08:33;;;;;;;11.83;6.10;;;;;;;14.91;67.78;99522.42;255674;1104;117026;-68
2021/08/18 05:13:38;;;;;;;6.97;5.57;;;;;;;14.99;67.58;99529.11;255887;1104;115727;-67
2021/08/18 05:18:41;;;;;;;12.18;6.38;;;;;;;15.06;67.11;99541.20;254935;1104;115638;-67
2021/08/18 05:23:44;;;;;;;8.03;6.05;;;;;;;15.05;67.11;99544.15;254265;1104;116213;-67
2021/08/18 05:28:48;;;;;;;10.70;6.20;;;;;;;15.12;67.74;99542.81;255085;1104;116667;-67
2021/08/18 05:33:51;;;;;;;10.80;7.20;;;;;;;15.26;67.15;99544.97;254121;1104;116117;-68
2021/08/18 05:38:55;;;;;;;8.20;5.50;;;;;;;15.71;66.98;99547.59;253943;1104;116458;-68
2021/08/18 05:43:59;;;;;;;8.33;6.73;;;;;;;15.94;66.70;99540.80;256046;1104;117978;-68
2021/08/18 05:49:05;;;;;;;11.35;6.65;;;;;;;16.25;65.72;99541.47;257080;1104;115206;-68
2021/08/18 05:54:08;;;;;;;9.25;6.50;;;;;;;16.57;65.08;99549.09;255013;1104;115149;-68
2021/08/18 05:59:12;;;;;;;12.33;7.10;;;;;;;16.76;65.28;99546.60;257239;1104;116131;-68
2021/08/18 06:04:15;;;;;;;10.00;8.10;;;;;;;16.79;64.80;99540.66;256616;1104;115569;-68
2021/08/18 06:09:18;;;;;;;6.47;5.30;;;;;;;16.87;64.44;99533.86;254714;1104;114576;-68
2021/08/18 06:14:24;;;;;;;7.35;4.55;;;;;;;16.83;63.97;99526.34;256736;1104;115681;-68
2021/08/18 06:19:27;;;;;;;9.20;6.45;;;;;;;16.68;64.02;99544.50;257002;1105;115588;-68
2021/08/18 06:24:40;;;;;;;9.88;6.25;;;;;;;16.71;64.24;99542.05;257113;1104;136492;-68
2021/08/18 06:29:43;;;;;;;7.40;5.65;;;;;;;16.84;64.05;99536.02;256747;1099;115156;-68
2021/08/18 06:34:47;;;;;;;7.80;6.77;;;;;;;16.87;64.11;99525.78;256509;1104;115297;-67
2021/08/18 06:39:58;;;;;;;8.00;5.73;;;;;;;16.95;64.31;99522.49;257144;1104;115338;-66
2021/08/18 06:45:02;;;;;;;6.27;4.53;;;;;;;17.15;63.29;99535.78;257010;1104;116942;-67
2021/08/18 06:50:06;;;;;;;10.70;5.95;;;;;;;17.32;63.20;99548.84;257081;1104;114948;-67
2021/08/18 06:55:10;;;;;;;6.88;5.45;;;;;;;17.55;63.19;99541.88;257186;1104;116049;-67
2021/08/18 07:00:14;;;;;;;7.58;5.98;;;;;;;17.92;62.97;99557.42;257071;1104;115051;-68
2021/08/18 07:05:19;;;;;;;10.98;6.10;;;;;;;18.74;62.51;99555.29;254889;1104;115274;-67
2021/08/18 07:10:24;;;;;;;;;;;;;;;19.70;61.01;99550.20;253913;1104;115657;-68
2021/08/18 07:15:28;;;;;;;10.15;5.95;;;;;;;20.43;59.51;99560.13;257305;1104;103048;-68
2021/08/18 07:20:31;;;;;;;11.75;5.80;;;;;;;20.45;59.05;99569.55;253719;1104;116586;-66
2021/08/18 07:29:11;;;;;;;11.90;5.85;;;;;;;19.84;58.47;99586.98;261470;1093;103500;-68
2021/08/18 07:34:16;;;;;;;10.97;5.47;;;;;;;19.19;58.30;99580.80;257032;1104;115968;-68
2021/08/18 07:39:19;;;;;;;7.70;5.67;;;;;;;18.87;59.05;99580.77;253747;1100;115400;-69
2021/08/18 07:44:22;;;;;;;7.50;4.70;;;;;;;18.81;59.12;99585.44;253818;1104;115427;-68
2021/08/18 07:49:25;;;;;;;7.57;5.13;;;;;;;18.79;59.56;99572.22;253805;1099;116561;-67
2021/08/18 07:54:28;;;;;;;8.40;5.58;;;;;;;19.05;59.64;99571.83;253551;1104;115625;-68
2021/08/18 07:59:32;;;;;;;6.40;4.90;;;;;;;19.24;59.48;99575.32;253586;1104;115573;-69
2021/08/18 08:04:35;;;;;;;5.80;5.27;;;;;;;19.42;59.28;99582.56;255587;1099;115228;-69
2021/08/18 08:09:37;;;;;;;7.03;4.95;;;;;;;19.86;59.09;99573.16;253774;1104;115930;-68
2021/08/18 08:16:51;;;;;;;7.48;5.18;;;;;;;20.38;58.36;99569.16;261926;1093;103778;-68
2021/08/18 08:21:53;;;;;;;10.05;5.78;;;;;;;20.72;58.37;99574.09;254490;1104;114551;-68
2021/08/18 08:26:55;;;;;;;6.20;5.37;;;;;;;21.11;57.66;99565.30;255004;1104;115557;-70
2021/08/18 08:31:58;;;;;;;9.27;5.57;;;;;;;20.85;56.43;99575.14;253706;1104;115509;-69
2021/08/18 08:37:00;;;;;;;6.67;5.00;;;;;;;20.30;56.12;99564.41;253876;1104;115087;-68
2021/08/18 08:42:04;;;;;;;7.90;5.50;;;;;;;20.13;56.85;99566.95;253708;1104;115713;-70
2021/08/18 08:47:08;;;;;;;8.13;4.70;;;;;;;20.72;57.97;99573.29;255465;1104;114675;-69
2021/08/18 08:52:13;;;;;;;5.65;4.45;;;;;;;21.01;56.79;99568.27;254720;1104;114632;-70
2021/08/18 08:57:16;;;;;;;8.60;5.57;;;;;;;21.32;56.16;99560.22;254885;1104;114952;-70
2021/08/18 09:02:22;;;;;;;7.17;4.80;;;;;;;21.21;55.97;99558.06;257144;1103;114981;-70
2021/08/18 09:07:25;;;;;;;;;;;;;;;20.78;55.41;99561.24;257213;1103;115227;-70
2021/08/18 09:12:29;;;;;;;7.13;5.33;;;;;;;20.51;55.60;99568.31;256168;1104;103197;-69
2021/08/18 09:17:33;;;;;;;4.35;3.95;;;;;;;20.76;55.37;99566.16;253625;1099;114703;-70
2021/08/18 09:22:45;;;;;;;4.53;4.03;;;;;;;21.11;55.09;99550.94;256963;1104;114979;-70
2021/08/18 09:27:52;;;;;;;4.30;3.45;;;;;;;20.96;54.80;99562.16;255046;1100;114967;-69
2021/08/18 09:32:57;;;;;;;4.20;3.75;;;;;;;20.62;54.48;99566.19;254903;1104;114336;-69
2021/08/18 09:38:04;;;;;;;7.60;4.17;;;;;;;20.25;54.77;99561.01;253684;1104;116453;-69
2021/08/18 09:43:24;;;;;;;6.15;3.63;;;;;;;20.15;55.08;99565.55;253627;1104;115288;-69
2021/08/18 09:48:29;;;;;;;4.95;3.75;;;;;;;20.59;54.88;99558.67;253701;1104;135187;-69
2021/08/18 09:53:35;;;;;;;5.05;3.53;;;;;;;20.56;55.02;99563.89;254157;1104;115348;-66
2021/08/18 09:58:47;;;;;;;5.43;3.73;;;;;;;21.07;55.27;99567.05;253992;1104;114844;-68
2021/08/18 10:03:52;;;;;;;7.60;3.55;;;;;;;21.08;54.22;99552.39;255015;1100;114918;-65
2021/08/18 10:08:57;;;;;;;6.73;3.90;;;;;;;21.51;54.33;99541.81;255079;1104;117368;-67
2021/08/18 10:14:01;;;;;;;4.28;3.85;;;;;;;21.79;53.88;99544.33;254540;1104;115106;-67
2021/08/18 10:19:06;;;;;;;6.78;4.10;;;;;;;22.33;54.30;99534.91;255743;1104;116572;-67
2021/08/18 10:24:32;;;;;;;2.97;2.73;;;;;;;22.69;53.63;99542.78;255992;1104;114814;-68
2021/08/18 10:29:38;;;;;;;4.33;3.37;;;;;;;23.05;53.29;99534.31;256514;1104;117227;-70
2021/08/18 10:34:45;;;;;;;7.60;2.98;;;;;;;23.21;51.84;99528.39;255422;1104;115023;-70
2021/08/18 10:39:54;;;;;;;4.45;3.63;;;;;;;23.46;51.83;99531.03;255336;1104;115232;-70
2021/08/18 10:44:59;;;;;;;5.93;4.10;;;;;;;23.13;50.53;99525.36;254130;1104;115029;-68
2021/08/18 10:50:23;;;;;;;3.55;2.23;;;;;;;22.94;50.38;99533.05;256288;1104;115131;-70
2021/08/18 10:55:29;;;;;;;4.75;2.78;;;;;;;23.02;50.47;99540.40;257284;1104;115744;-71
2021/08/18 11:00:39;;;;;;;4.37;3.50;;;;;;;;;;257411;1103;116066;-70
2021/08/18 11:05:48;;;;;;;8.90;3.23;;;;;;;22.81;48.94;99544.90;257237;1104;103758;-70
2021/08/18 11:10:54;;;;;;;4.10;2.83;;;;;;;22.22;49.25;99530.13;257218;1103;115120;-71
2021/08/18 11:15:57;;;;;;;6.23;3.20;;;;;;;21.82;49.42;99541.78;257122;1104;114782;-70
2021/08/18 11:21:01;;;;;;;3.10;2.77;;;;;;;21.67;50.09;99523.23;257066;1104;115320;-71
2021/08/18 11:26:06;;;;;;;2.88;2.68;;;;;;;22.17;50.82;99521.00;256343;1104;115441;-71
2021/08/18 11:31:10;;;;;;;4.60;2.80;;;;;;;22.34;50.36;99533.00;256097;1104;115477;-69
2021/08/18 11:36:17;;;;;;;3.93;2.53;;;;;;;22.01;49.71;99536.13;253830;1104;115880;-69
2021/08/18 11:41:32;;;;;;;4.30;2.83;;;;;;;22.02;50.04;99534.20;254098;1104;115655;-70
2021/08/18 11:46:35;;;;;;;3.85;2.88;;;;;;;21.63;50.14;99530.39;255686;1103;115306;-70
2021/08/18 11:51:38;;;;;;;4.40;2.63;;;;;;;21.30;50.11;99535.33;253918;1104;117097;-70
2021/08/18 11:56:42;;;;;;;3.30;3.00;;;;;;;21.13;50.17;99546.81;254753;1104;115192;-67
2021/08/18 12:01:47;;;;;;;2.58;2.38;;;;;;;21.55;50.51;99524.92;254578;1104;115137;-68
2021/08/18 12:07:07;;;;;;;3.03;2.83;;;;;;;21.77;51.05;99514.79;254302;1098;115209;-70
2021/08/18 12:12:20;;;;;;;2.88;2.53;;;;;;;22.12;50.51;99521.16;253865;1104;116272;-70
2021/08/18 12:17:23;;;;;;;3.20;2.90;;;;;;;22.36;49.53;99528.85;253681;1104;115548;-69
2021/08/18 12:22:29;;;;;;;2.85;2.55;;;;;;;22.32;49.16;99535.27;255641;1104;115459;-71
2021/08/18 12:27:33;;;;;;;4.63;2.85;;;;;;;22.27;48.41;99524.55;255372;1104;115264;-70
2021/08/18 12:32:38;;;;;;;3.23;2.90;;;;;;;21.98;49.05;99527.80;255809;1104;115283;-70
2021/08/18 12:37:53;;;;;;;6.20;2.60;;;;;;;21.91;48.94;99519.31;253649;1104;115386;-71
2021/08/18 12:43:01;;;;;;;2.60;2.28;;;;;;;22.34;49.16;99513.98;253569;1104;115270;-69
2021/08/18 12:48:04;;;;;;;2.95;2.75;;;;;;;22.45;48.16;99526.16;257005;1104;115941;-70
2021/08/18 12:53:09;;;;;;;2.47;2.30;;;;;;;22.50;47.87;99528.72;257007;1104;115319;-70
2021/08/18 12:58:23;;;;;;;3.27;2.50;;;;;;;22.13;47.64;99521.95;257036;1104;115146;-70
2021/08/18 13:03:26;;;;;;;2.90;2.70;;;;;;;21.86;47.33;99517.54;255047;1104;116477;-70
2021/08/18 13:08:33;;;;;;;5.70;3.03;;;;;;;21.51;47.63;99520.11;257037;1104;114845;-69
2021/08/18 13:13:37;;;;;;;3.47;2.20;;;;;;;21.35;47.73;99513.51;257032;1104;115599;-69
2021/08/18 13:18:40;;;;;;;2.60;2.40;;;;;;;21.45;48.46;99509.70;257080;1104;115142;-70
2021/08/18 13:23:43;;;;;;;2.40;2.20;;;;;;;21.70;48.06;99500.91;257117;1103;115379;-70
2021/08/18 13:28:46;;;;;;;2.13;2.03;;;;;;;21.54;48.03;99510.55;257144;1104;114508;-71
2021/08/18 13:33:50;;;;;;;3.43;2.48;;;;;;;21.69;48.07;99502.02;255645;1104;115579;-70
2021/08/18 13:38:56;;;;;;;2.70;2.30;;;;;;;21.89;48.24;99505.26;253742;1104;115107;-70
2021/08/18 13:44:02;;;;;;;3.83;2.10;;;;;;;22.09;47.55;99507.41;253709;1104;115176;-69
2021/08/18 13:49:07;;;;;;;3.30;1.95;;;;;;;21.77;47.09;99506.65;255287;1104;114588;-69
2021/08/18 13:54:11;;;;;;;1.83;1.73;;;;;;;21.64;47.22;99502.16;254613;1104;116009;-69
2021/08/18 13:59:15;;;;;;;2.30;2.15;;;;;;;22.01;47.54;99502.78;253837;1104;114857;-68
2021/08/18 14:04:19;;;;;;;2.00;1.78;;;;;;;21.76;47.28;99507.77;253796;1103;115482;-69
2021/08/18 14:09:23;;;;;;;2.23;1.47;;;;;;;21.87;47.30;99510.20;253845;1104;115089;-69
2021/08/18 14:14:28;;;;;;;2.50;2.10;;;;;;;21.37;46.64;99503.16;253695;1104;119704;-68
2021/08/18 14:19:32;;;;;;;3.13;2.58;;;;;;;21.09;47.57;99507.11;254281;1097;115812;-67
2021/08/18 14:24:36;;;;;;;2.35;2.18;;;;;;;20.86;47.43;99509.02;254374;1104;115311;-68
2021/08/18 14:29:40;;;;;;;2.93;1.93;;;;;;;20.81;48.00;99504.52;255266;1104;115300;-67
2021/08/18 14:34:44;;;;;;;1.67;1.57;;;;;;;20.73;48.46;99510.69;256755;1104;115790;-68
2021/08/18 14:39:47;;;;;;;2.27;2.07;;;;;;;20.80;48.74;99502.91;257154;1103;114177;-69
2021/08/18 14:44:50;;;;;;;1.80;1.70;;;;;;;20.84;47.70;99500.39;256739;1104;115059;-69
2021/08/18 14:49:54;;;;;;;3.80;1.67;;;;;;;20.62;47.75;99503.09;253757;1104;114963;-69
2021/08/18 14:54:57;;;;;;;2.45;1.85;;;;;;;20.78;48.18;99498.94;253659;1100;115371;-66
2021/08/18 15:00:02;;;;;;;7.03;1.93;;;;;;;20.63;47.82;99501.98;257101;1104;115949;-67
2021/08/18 15:05:08;;;;;;;1.80;1.70;;;;;;;20.73;48.01;99509.89;257136;1103;115151;-69
2021/08/18 15:10:15;;;;;;;2.53;2.03;;;;;;;20.56;48.10;99512.44;257041;1104;114758;-67
2021/08/18 15:15:18;;;;;;;2.37;2.17;;;;;;;20.35;47.86;99506.66;257199;1104;116512;-67
2021/08/18 15:20:22;;;;;;;1.18;1.05;;;;;;;20.28;47.91;99509.78;257214;1104;115417;-69
2021/08/18 15:25:25;;;;;;;1.75;1.65;;;;;;;20.33;48.35;99492.63;257175;1104;115785;-69
2021/08/18 15:30:29;;;;;;;4.70;1.53;;;;;;;20.38;49.16;99498.77;257157;1103;115141;-68
2021/08/18 15:35:32;;;;;;;1.93;1.40;;;;;;;20.31;47.97;99490.22;257232;1104;115787;-68
2021/08/18 15:40:36;;;;;;;2.80;1.93;;;;;;;20.27;48.08;99493.84;254006;1104;115334;-69
2021/08/18 15:45:39;;;;;;;1.97;1.70;;;;;;;20.20;47.95;99491.54;256125;1103;115757;-68
2021/08/18 15:50:43;;;;;;;2.13;1.77;;;;;;;20.07;48.18;99498.59;254116;1104;114278;-68
2021/08/18 15:55:47;;;;;;;1.67;1.43;;;;;;;19.96;48.16;99475.55;257231;1104;114734;-68
2021/08/18 16:00:50;;;;;;;2.13;1.67;;;;;;;19.91;48.17;99477.56;257222;1104;115150;-69
2021/08/18 16:05:53;;;;;;;1.58;1.48;;;;;;;19.79;48.27;99470.78;257318;1104;115401;-69
2021/08/18 16:10:55;;;;;;;2.20;2.03;;;;;;;19.75;48.66;99464.36;256901;1104;116855;-69
2021/08/18 16:15:57;;;;;;;1.77;1.67;;;;;;;19.73;48.78;99458.45;253649;1103;116015;-68
2021/08/18 16:21:00;;;;;;;4.60;2.27;;;;;;;19.66;48.88;99457.25;253848;1100;115848;-69
2021/08/18 16:26:03;;;;;;;1.97;1.80;;;;;;;19.50;48.71;99464.84;254661;1104;115598;-69
2021/08/18 16:31:06;;;;;;;2.70;2.20;;;;;;;19.30;49.04;99454.39;256016;1103;116771;-68
2021/08/18 16:36:10;;;;;;;3.93;1.70;;;;;;;19.14;49.21;99443.89;255139;1104;117912;-67
2021/08/18 16:41:14;;;;;;;3.43;2.00;;;;;;;19.00;49.72;99447.65;255192;1104;118529;-68
2021/08/18 16:46:17;;;;;;;1.73;1.63;;;;;;;18.82;50.11;99452.02;256420;1104;116429;-68
2021/08/18 16:51:22;;;;;;;2.60;1.88;;;;;;;18.67;50.33;99453.05;256977;1104;116543;-68
2021/08/18 16:56:29;;;;;;;1.87;1.77;;;;;;;18.57;50.58;99450.50;256255;1104;116184;-67
2021/08/18 17:01:36;;;;;;;2.48;1.95;;;;;;;18.47;50.93;99448.75;254624;1104;115996;-67
2021/08/18 17:06:40;;;;;;;2.15;1.53;;;;;;;18.41;51.38;99446.42;254492;1104;116034;-67
2021/08/18 17:11:44;;;;;;;1.90;1.78;;;;;;;18.27;51.94;99446.38;255718;1104;116049;-67
2021/08/18 17:16:48;;;;;;;3.95;1.70;;;;;;;18.17;52.72;99451.91;257255;1104;116567;-68
2021/08/18 17:21:52;;;;;;;2.45;2.25;;;;;;;18.03;53.22;99448.34;257217;1103;116138;-67
2021/08/18 17:26:56;;;;;;;2.20;1.70;;;;;;;17.86;53.38;99445.31;257279;1104;115996;-67
2021/08/18 17:31:59;;;;;;;5.90;2.50;;;;;;;17.76;54.29;99448.94;257393;1104;116328;-69
2021/08/18 17:37:04;;;;;;;4.15;2.20;;;;;;;17.63;54.53;99444.23;257255;1104;116281;-67
2021/08/18 17:42:07;;;;;;;2.65;2.53;;;;;;;17.53;55.33;99441.64;257239;1104;116332;-67
2021/08/18 17:47:10;;;;;;;2.77;1.70;;;;;;;17.49;55.54;99441.41;257430;1104;116494;-67
2021/08/18 17:52:14;;;;;;;3.30;1.97;;;;;;;17.35;55.83;99438.63;257091;1104;115427;-67
2021/08/18 17:57:17;;;;;;;2.80;2.33;;;;;;;17.22;56.29;99439.29;254703;1100;116221;-67
2021/08/18 18:02:21;;;;;;;1.73;1.63;;;;;;;17.05;56.56;99437.05;256481;1104;117779;-66
2021/08/18 18:07:24;;;;;;;2.23;1.40;;;;;;;16.91;56.81;99430.70;256671;1103;116217;-67
2021/08/18 18:12:27;;;;;;;2.28;2.18;;;;;;;16.82;57.30;99432.39;257239;1104;117598;-67
2021/08/18 18:17:30;;;;;;;2.30;2.20;;;;;;;16.58;57.62;99428.81;254373;1100;119887;-67
2021/08/18 18:22:34;;;;;;;5.28;1.93;;;;;;;16.35;57.72;99438.41;254062;1098;115229;-66
2021/08/18 18:27:41;;;;;;;2.40;2.25;;;;;;;16.06;58.04;99441.81;253830;1104;115309;-66
2021/08/18 18:32:46;;;;;;;;;;;;;;;15.86;58.43;99452.69;253723;1104;114832;-66
2021/08/18 18:37:52;;;;;;;6.60;3.00;;;;;;;15.74;59.10;99452.19;256921;1103;103830;-65
2021/08/18 18:42:56;;;;;;;3.28;2.85;;;;;;;15.64;59.09;99452.22;254947;1104;115341;-66
2021/08/18 18:48:01;;;;;;;5.93;2.90;;;;;;;15.55;59.81;99454.66;254040;1104;115816;-66
2021/08/18 18:53:04;;;;;;;6.63;2.88;;;;;;;15.47;59.96;99456.02;254468;1103;115402;-68
2021/08/18 18:58:08;;;;;;;2.20;2.10;;;;;;;15.47;60.38;99450.64;254068;1104;114882;-65
2021/08/18 19:03:13;;;;;;;7.75;2.45;;;;;;;15.47;60.88;99439.09;256063;1104;115346;-67
2021/08/18 19:08:17;;;;;;;3.85;2.88;;;;;;;15.52;61.27;99436.39;256256;1104;116630;-65
2021/08/18 19:13:20;;;;;;;4.03;2.88;;;;;;;15.58;61.00;99429.16;255121;1099;114931;-67
2021/08/18 19:18:25;;;;;;;5.23;2.58;;;;;;;15.57;61.08;99428.35;255356;1104;115866;-66
2021/08/18 19:23:29;;;;;;;5.23;2.80;;;;;;;15.57;61.41;99428.35;255452;1104;117352;-66
2021/08/18 19:28:32;;;;;;;3.33;3.03;;;;;;;15.57;61.75;99428.35;257157;1104;115621;-67
2021/08/18 19:33:37;;;;;;;5.35;3.30;;;;;;;15.60;61.42;99427.77;256141;1104;116848;-66
2021/08/18 19:38:41;;;;;;;4.58;4.03;;;;;;;15.65;61.51;99425.08;257158;1104;115150;-68
2021/08/18 19:43:45;;;;;;;7.40;3.68;;;;;;;15.73;61.88;99427.20;257114;1104;115723;-67
2021/08/18 19:48:48;;;;;;;4.03;3.47;;;;;;;15.79;61.79;99428.78;257112;1104;115505;-68
2021/08/18 19:53:52;;;;;;;3.17;2.77;;;;;;;15.81;62.23;99421.25;257248;1104;117683;-66
2021/08/18 19:58:56;;;;;;;2.97;2.77;;;;;;;15.85;62.31;99418.02;257260;1104;115467;-68
2021/08/18 20:03:59;;;;;;;3.30;3.00;;;;;;;15.86;62.24;99420.42;256484;1104;115556;-67
2021/08/18 20:09:03;;;;;;;5.30;2.90;;;;;;;15.90;61.86;99420.68;256647;1104;115320;-68
2021/08/18 20:14:07;;;;;;;4.77;2.77;;;;;;;15.94;62.08;99417.14;254561;1104;115687;-67
2021/08/18 20:19:10;;;;;;;4.28;3.18;;;;;;;15.90;61.51;99416.08;254099;1100;116389;-67
2021/08/18 20:24:14;;;;;;;4.05;3.60;;;;;;;15.82;61.92;99411.30;255499;1098;116156;-67
2021/08/18 20:29:18;;;;;;;4.30;3.33;;;;;;;15.73;61.95;99408.38;254367;1104;117723;-66
2021/08/18 20:34:21;;;;;;;9.18;2.28;;;;;;;15.74;62.41;99401.93;254782;1098;116291;-66
2021/08/18 20:39:25;;;;;;;4.27;3.43;;;;;;;15.71;62.53;99410.54;254201;1104;115616;-66
2021/08/18 20:44:29;;;;;;;3.53;2.40;;;;;;;15.76;62.34;99415.09;255130;1098;116128;-66
2021/08/18 20:49:33;;;;;;;3.18;2.88;;;;;;;15.81;62.42;99420.45;254494;1099;115684;-66
2021/08/18 20:54:38;;;;;;;5.35;2.78;;;;;;;15.81;62.29;99410.50;255145;1104;116159;-66
2021/08/18 20:59:43;;;;;;;3.40;3.07;;;;;;;15.86;62.24;99412.36;254144;1104;115721;-65
2021/08/18 21:04:47;;;;;;;4.20;3.25;;;;;;;15.83;62.48;99415.60;254927;1104;115674;-67
2021/08/18 21:09:50;;;;;;;3.60;3.17;;;;;;;15.82;62.74;99422.86;254468;1104;115309;-68
2021/08/18 21:14:56;;;;;;;3.40;2.60;;;;;;;15.80;62.21;99427.70;254839;1104;114711;-67
2021/08/18 21:19:59;;;;;;;4.30;2.70;;;;;;;15.75;62.64;99419.66;256602;1104;114455;-68
2021/08/18 21:25:04;;;;;;;8.08;2.25;;;;;;;15.73;62.65;99427.20;255442;1099;115695;-67
2021/08/18 21:30:11;;;;;;;5.03;3.03;;;;;;;15.71;62.81;99431.23;257038;1104;116027;-68
2021/08/18 21:35:15;;;;;;;2.47;2.27;;;;;;;15.74;62.59;99422.63;257213;1104;115697;-67
2021/08/18 21:40:18;;;;;;;3.00;2.68;;;;;;;15.75;62.94;99429.61;256819;1104;115413;-68
2021/08/18 21:45:22;;;;;;;5.10;3.37;;;;;;;15.78;63.24;99431.75;257161;1104;116399;-67
2021/08/18 21:50:26;;;;;;;3.03;2.47;;;;;;;15.78;63.08;99429.06;257139;1104;115803;-68
2021/08/18 21:55:31;;;;;;;2.60;2.30;;;;;;;15.76;63.37;99431.22;254968;1104;115132;-68
2021/08/18 22:00:35;;;;;;;2.45;2.25;;;;;;;15.77;63.38;99428.25;257077;1104;116765;-68
2021/08/18 22:05:44;;;;;;;5.93;2.13;;;;;;;15.79;63.78;99425.30;254819;1104;115343;-67
2021/08/18 22:10:48;;;;;;;1.70;1.60;;;;;;;15.74;63.74;99412.68;256676;1104;115089;-67
2021/08/18 22:15:51;;;;;;;2.00;1.85;;;;;;;15.73;63.83;99424.51;255148;1104;117752;-68
2021/08/18 22:20:56;;;;;;;2.90;2.65;;;;;;;15.75;64.37;99421.55;254312;1104;115496;-69
2021/08/18 22:25:59;;;;;;;2.25;1.95;;;;;;;15.73;64.52;99419.13;255475;1104;115862;-69
2021/08/18 22:31:03;;;;;;;3.40;1.95;;;;;;;15.72;64.67;99428.27;257060;1104;117359;-67
2021/08/18 22:36:07;;;;;;;2.73;2.18;;;;;;;15.79;65.43;99426.09;254067;1104;114590;-68
2021/08/18 22:41:12;;;;;;;4.18;1.86;;;;;;;15.82;65.47;99432.81;255835;1104;115865;-68
2021/08/18 22:46:16;;;;;;;2.30;2.10;;;;;;;15.82;65.28;99428.23;254227;1104;115915;-68
2021/08/18 22:51:20;;;;;;;2.73;2.20;;;;;;;15.83;65.87;99427.16;255151;1100;115331;-67
2021/08/18 22:56:25;;;;;;;1.98;1.88;;;;;;;15.75;66.13;99425.04;256181;1100;115451;-67
2021/08/18 23:01:27;;;;;;;2.58;2.38;;;;;;;15.72;66.16;99425.59;255336;1104;115069;-68
2021/08/18 23:06:31;;;;;;;1.38;1.28;;;;;;;15.71;66.42;99423.17;253929;1104;115827;-68
2021/08/18 23:11:35;;;;;;;3.10;1.83;;;;;;;15.65;66.25;99418.89;255861;1104;115416;-68
2021/08/18 23:16:39;;;;;;;3.50;2.65;;;;;;;15.64;66.53;99415.41;254081;1104;114417;-68
2021/08/18 23:21:42;;;;;;;2.00;1.90;;;;;;;15.64;66.96;99419.97;257312;1104;115590;-68
2021/08/18 23:26:46;;;;;;;5.03;1.83;;;;;;;15.63;66.73;99429.92;254440;1104;115891;-68